createdAt,value
2019-05-17T00:00:51.385Z,45.32
2019-05-17T00:05:57.026Z,45.84
2019-05-17T00:11:00.675Z,45.43
2019-05-17T00:16:07.002Z,45.17
2019-05-17T00:21:10.271Z,45.48
2019-05-17T00:26:16.269Z,45.61
2019-05-17T00:31:19.547Z,45.53
2019-05-17T00:36:23.394Z,46.12
2019-05-17T00:41:27.207Z,45.60
2019-05-17T00:46:30.964Z,45.76
2019-05-17T00:51:36.698Z,45.62
2019-05-17T00:56:40.425Z,45.91
2019-05-17T01:01:44.270Z,45.49
2019-05-17T01:06:49.822Z,45.49
2019-05-17T01:11:53.629Z,45.14
2019-05-17T01:16:57.528Z,45.05
2019-05-17T01:22:01.325Z,44.89
2019-05-17T01:27:06.544Z,44.89
2019-05-17T01:32:10.683Z,45.04
2019-05-17T01:37:16.984Z,45.61
2019-05-17T01:42:20.058Z,45.09
2019-05-17T01:47:23.875Z,45.09
2019-05-17T01:52:27.672Z,45.55
2019-05-17T01:57:31.770Z,45.65
2019-05-17T02:02:38.900Z,46.31
2019-05-17T02:07:42.699Z,46.31
2019-05-17T02:12:49.004Z,46.78
2019-05-17T02:17:52.083Z,46.43
2019-05-17T02:22:56.487Z,46.44
2019-05-17T02:28:01.561Z,47.00
2019-05-17T02:33:05.732Z,46.88
2019-05-17T02:38:09.496Z,46.88
2019-05-17T02:43:13.489Z,46.94
2019-05-17T02:48:17.336Z,47.43
2019-05-17T02:53:22.937Z,47.43
2019-05-17T02:58:26.725Z,46.96
2019-05-17T03:03:32.340Z,47.11
2019-05-17T03:08:36.419Z,47.56
2019-05-17T03:13:43.211Z,47.71
2019-05-17T03:18:45.805Z,47.42
2019-05-17T03:23:49.740Z,47.55
2019-05-17T03:28:53.933Z,47.67
2019-05-17T03:33:57.936Z,48.10
2019-05-17T03:39:03.160Z,48.10
2019-05-17T03:44:07.299Z,47.69
2019-05-17T03:49:13.141Z,47.23
2019-05-17T03:54:16.610Z,47.08
2019-05-17T03:59:20.379Z,47.08
2019-05-17T04:04:24.284Z,46.49
2019-05-17T04:09:28.099Z,46.47
2019-05-17T04:14:33.496Z,46.72
2019-05-17T04:19:37.558Z,46.72
2019-05-17T04:24:43.866Z,46.50
2019-05-17T04:29:46.866Z,46.55
2019-05-17T04:34:52.534Z,45.95
2019-05-17T04:39:56.415Z,45.95
2019-05-17T04:45:03.601Z,46.40
2019-05-17T04:50:06.249Z,46.40
2019-05-17T04:55:13.286Z,46.11
2019-05-17T05:00:15.722Z,46.41
2019-05-17T05:05:22.447Z,46.41
2019-05-17T05:10:25.188Z,46.02
2019-05-17T05:15:44.152Z,45.55
2019-05-17T05:20:47.644Z,46.10
2019-05-17T05:25:52.227Z,46.12
2019-05-17T05:30:56.246Z,46.31
2019-05-17T05:36:02.060Z,46.16
2019-05-17T05:41:05.599Z,45.70
2019-05-17T05:46:11.539Z,45.98
2019-05-17T05:51:14.913Z,45.60
2019-05-17T05:56:18.686Z,45.84
2019-05-17T06:01:22.508Z,45.84
2019-05-17T06:06:26.302Z,45.84
2019-05-17T06:11:32.072Z,46.07
2019-05-17T06:16:35.627Z,45.80
2019-05-17T06:21:39.502Z,45.80
2019-05-17T06:26:43.539Z,45.83
2019-05-17T06:31:47.448Z,45.83
2019-05-17T06:36:52.820Z,45.61
2019-05-17T06:41:56.798Z,45.61
2019-05-17T06:47:02.698Z,45.68
2019-05-17T06:52:06.116Z,45.95
2019-05-17T06:57:09.942Z,46.74
2019-05-17T07:02:13.764Z,49.51
2019-05-17T07:07:30.510Z,49.95
2019-05-17T07:12:34.554Z,50.33
2019-05-17T07:17:40.036Z,50.33
2019-05-17T07:22:43.865Z,44.81
2019-05-17T07:27:50.092Z,44.81
2019-05-17T07:32:53.295Z,43.12
2019-05-17T07:37:59.343Z,43.13
2019-05-17T07:43:10.500Z,43.50
2019-05-17T07:48:09.794Z,43.44
2019-05-17T07:53:13.796Z,43.62
2019-05-17T07:58:17.598Z,43.20
2019-05-17T08:03:24.707Z,43.60
2019-05-17T08:08:26.893Z,43.68
2019-05-17T08:13:33.673Z,43.23
2019-05-17T08:18:36.395Z,43.71
2019-05-17T08:23:40.292Z,43.71
2019-05-17T08:28:44.076Z,44.01
2019-05-17T08:33:49.769Z,46.26
2019-05-17T08:38:53.663Z,45.42
2019-05-17T08:43:57.453Z,44.62
2019-05-17T08:49:01.245Z,44.79
2019-05-17T08:54:05.024Z,44.79
2019-05-17T08:59:09.603Z,44.75
2019-05-17T09:04:13.608Z,44.62
2019-05-17T09:09:17.490Z,44.62
2019-05-17T09:14:21.540Z,44.13
2019-05-17T09:19:25.316Z,44.41
2019-05-17T09:24:30.062Z,43.90
2019-05-17T09:29:33.906Z,43.95
2019-05-17T09:34:37.716Z,43.89
2019-05-17T09:39:41.545Z,44.48
2019-05-17T09:44:45.414Z,44.01
2019-05-17T09:49:50.137Z,44.71
2019-05-17T09:54:54.059Z,44.71
2019-05-17T10:00:00.013Z,44.56
2019-05-17T10:05:03.572Z,44.85
2019-05-17T10:10:10.127Z,44.74
2019-05-17T10:15:13.875Z,44.92
2019-05-17T10:20:19.913Z,45.06
2019-05-17T10:25:23.427Z,44.27
2019-05-17T10:30:29.809Z,45.72
2019-05-17T10:35:32.835Z,46.21
2019-05-17T10:40:36.628Z,45.90
2019-05-17T10:45:40.585Z,45.94
2019-05-17T10:50:44.384Z,45.12
2019-05-17T10:55:49.788Z,45.88
2019-05-17T11:00:53.820Z,45.88
2019-05-17T11:05:59.701Z,45.02
2019-05-17T11:11:05.126Z,45.50
2019-05-17T11:16:08.614Z,45.52
2019-05-17T11:21:12.454Z,45.04
2019-05-17T11:26:16.396Z,44.89
2019-05-17T11:31:20.208Z,44.89
2019-05-17T11:36:24.020Z,43.28
2019-05-17T11:41:27.801Z,43.28
2019-05-17T11:46:36.245Z,43.88
2019-05-17T11:51:37.181Z,43.88
2019-05-17T11:56:40.971Z,43.78
2019-05-17T12:01:44.822Z,43.74
2019-05-17T12:06:48.644Z,44.14
2019-05-17T12:11:52.541Z,44.19
2019-05-17T12:16:56.504Z,43.91
2019-05-17T12:22:00.377Z,44.39
2019-05-17T12:27:04.202Z,44.08
2019-05-17T12:32:08.005Z,43.89
2019-05-17T12:37:11.790Z,43.89
2019-05-17T12:42:15.578Z,43.66
2019-05-17T12:47:19.380Z,43.96
2019-05-17T12:52:23.147Z,43.96
2019-05-17T12:57:26.987Z,43.98
2019-05-17T13:02:30.767Z,43.97
2019-05-17T13:07:34.645Z,43.70
2019-05-17T13:12:38.451Z,44.03
2019-05-17T13:17:42.290Z,44.49
2019-05-17T13:22:46.090Z,44.49
2019-05-17T13:27:49.885Z,44.49
2019-05-17T13:32:53.665Z,44.11
2019-05-17T13:37:57.522Z,44.41
2019-05-17T13:43:01.311Z,44.02
2019-05-17T13:48:05.120Z,44.02
2019-05-17T14:03:42.546Z,43.27
2019-05-17T14:08:46.441Z,43.72
2019-05-17T14:13:50.233Z,44.01
2019-05-17T14:18:54.174Z,43.64
2019-05-17T14:23:57.974Z,43.88
2019-05-17T14:29:01.833Z,43.68
2019-05-17T14:34:05.661Z,44.09
2019-05-17T14:39:09.466Z,43.09
2019-05-17T14:44:13.278Z,43.82
2019-05-17T14:49:17.084Z,43.82
2019-05-17T14:54:20.922Z,43.58
2019-05-17T14:59:24.761Z,43.83
2019-05-17T15:04:28.550Z,43.46
2019-05-17T15:49:37.754Z,42.69
2019-05-17T15:54:41.564Z,42.45
2019-05-17T15:59:45.448Z,42.12
2019-05-17T16:09:57.733Z,42.06
2019-05-17T16:15:01.663Z,41.81
2019-05-17T16:20:05.640Z,41.23
2019-05-17T16:25:09.484Z,41.23
2019-05-17T16:30:13.275Z,40.40
2019-05-17T16:35:17.058Z,40.40
2019-05-17T16:40:20.944Z,39.90
2019-05-17T16:45:24.777Z,39.90
2019-05-17T16:50:29.421Z,39.24
2019-05-17T16:55:33.347Z,39.20
2019-05-17T17:00:38.930Z,38.87
2019-05-17T17:05:42.783Z,38.94
2019-05-17T17:10:46.635Z,38.94
2019-05-17T17:15:50.536Z,38.96
2019-05-17T17:20:54.336Z,38.96
2019-05-17T17:26:07.933Z,38.70
2019-05-17T17:31:14.686Z,38.94
2019-05-17T17:36:19.778Z,39.13
2019-05-17T17:41:26.294Z,39.13
2019-05-17T17:46:29.354Z,38.96
2019-05-17T17:51:33.186Z,38.73
2019-05-17T17:56:37.021Z,38.73
2019-05-17T18:01:40.863Z,39.31
2019-05-17T18:06:44.766Z,39.31
2019-05-17T18:11:48.539Z,39.09
2019-05-17T18:16:52.438Z,39.00
2019-05-17T18:21:56.234Z,39.02
2019-05-17T18:27:00.013Z,39.50
2019-05-17T18:32:03.819Z,39.17
2019-05-17T18:37:07.629Z,39.12
2019-05-17T18:42:11.455Z,39.04
2019-05-17T18:47:15.258Z,39.21
2019-05-17T18:52:19.079Z,39.16
2019-05-17T18:57:22.904Z,39.16
2019-05-17T19:07:36.079Z,39.85
2019-05-17T19:12:39.934Z,40.17
2019-05-17T19:17:43.780Z,40.17
2019-05-17T19:22:47.644Z,40.80
2019-05-17T19:27:51.449Z,40.70
2019-05-17T19:32:55.256Z,40.70
2019-05-17T19:37:59.048Z,41.45
2019-05-17T19:43:02.936Z,41.46
2019-05-17T19:48:06.882Z,42.08
2019-05-17T19:53:10.757Z,42.16
2019-05-17T19:58:14.620Z,42.16
2019-05-17T20:03:22.976Z,42.54
2019-05-17T20:08:26.879Z,42.27
2019-05-17T20:13:30.756Z,42.27
2019-05-17T20:18:34.536Z,42.73
2019-05-17T20:23:38.343Z,42.73
2019-05-17T20:28:42.135Z,42.43
2019-05-17T20:33:45.916Z,42.43
2019-05-17T20:38:49.711Z,43.08
2019-05-17T20:43:53.539Z,43.13
2019-05-17T20:48:57.363Z,42.97
2019-05-17T20:54:01.169Z,43.17
2019-05-17T20:59:05.014Z,43.09
2019-05-17T21:04:08.845Z,43.09
2019-05-17T21:09:12.625Z,43.16
2019-05-17T21:14:16.410Z,43.54
2019-05-17T21:19:20.196Z,43.68
2019-05-17T21:24:23.980Z,43.68
2019-05-17T21:29:27.783Z,43.16
2019-05-17T21:34:31.554Z,43.93
2019-05-17T21:39:35.428Z,43.93
2019-05-17T21:44:39.228Z,43.67
2019-05-17T21:49:43.037Z,43.75
2019-05-17T21:54:46.856Z,43.56
2019-05-17T21:59:50.655Z,44.23
2019-05-17T22:04:54.468Z,43.64
2019-05-17T22:09:58.414Z,43.64
2019-05-17T22:15:02.222Z,44.25
2019-05-17T22:20:06.277Z,44.25
2019-05-17T22:25:10.048Z,44.29
2019-05-17T22:30:13.875Z,44.34
2019-05-17T22:35:17.753Z,44.59
2019-05-17T22:40:21.540Z,44.33
2019-05-17T22:45:25.351Z,44.33
2019-05-17T22:50:29.116Z,44.49
2019-05-17T22:55:32.882Z,44.54
2019-05-17T23:00:36.774Z,44.80
2019-05-17T23:05:40.541Z,45.14
2019-05-17T23:10:44.446Z,45.16
2019-05-17T23:16:01.939Z,45.16
2019-05-17T23:21:05.715Z,45.02
2019-05-17T23:26:09.481Z,44.93
2019-05-17T23:31:13.252Z,44.79
2019-05-17T23:36:17.061Z,44.79
2019-05-17T23:41:20.864Z,45.45
2019-05-17T23:46:24.632Z,45.01
2019-05-17T23:51:28.430Z,45.10
2019-05-17T23:56:32.227Z,45.58
